Share

Arapahoe, CO (80802)

DW8525 (KCOCHEYE5) Elev 4295 ft | 38.82 °N, 102.35 °W | Change Station

Current weather conditions updated 1 second ago

Clear
Clear
48.6 °F
Feels Like 49 °F
N
0.0
Wind Variable Wind from North
Gusts 0.0 mph
Sunrise 6:03 AM
Sunset 7:31 PM
Moon Waning Gibbous

Today is forecast to be nearly the same temperature as yesterday.

Pressure 30.00 in
Visibility 10.0 miles
Clouds Clear
Windchill 49 °F
Dew Point 38 °F
Humidity 68%
Rainfall 0.00 in
Snow Depth Not available.
UV 0 out of 16
Pollen 7.90 out of 12
Air Quality Not available.
Flu Activity Sporadic
METAR KITR 210953Z AUTO 36015KT 10SM CLR 09/04 A3010 RMK AO2 SLP158 T00890039

More Conditions Fewer Conditions

Pressure 30.00 in
Visibility 10.0 miles
Clouds Clear
Windchill 49 °F
Dew Point 38 °F
Humidity 68%
Rainfall 0.00 in
Snow Depth Not available.
UV 0 out of 16
Pollen 7.90 out of 12
Air Quality Not available.
Flu Activity Sporadic
METAR KITR 210953Z AUTO 36015KT 10SM CLR 09/04 A3010 RMK AO2 SLP158 T00890039

More Conditions Fewer Conditions

10-Day Weather Forecast

Almanac

Astronomy

Apr. 21, 2014 Rise Set
Actual Time 6:03 AM MDT 7:31 PM MDT
Civil Twilight 5:35 AM MDT 7:59 PM MDT
Nautical Twilight 5:02 AM MDT 8:33 PM MDT
Astronomical Twilight 4:26 AM MDT 9:09 PM MDT
Moon 1:02 AM MDT 11:33 AM MDT
Length of Visible Light 14h 24m
Length of Day
13h 28m
Tomorrow will be 2m 20s longer.
Waning Gibbous, 60% of the Moon is Illuminated
Today
Waning Gibbous
Apr 22
Last Quarter
Apr 29
New
May 6
First Quarter
May 14
Full

Today's Extremes

State Highs State Lows

Community

  • Snowy Robin
    Snowy Robin
  • Sun Pillar and Geese
    Sun Pillar and Geese
  • Showers on the Way
    Showers on the Way
  • Easter Morning Fog
    Easter Morning Fog
  • Easter Dance
    Easter Dance

WunderPhotos

Upload Photos

1,703,585 photos uploaded!

Nearby

Snow Depth

Station Depth Elevation
Glen Cove 14 in 11460 ft
Echo Lake 30 in 10600 ft
Medano Pass 0 in 9620 ft
Apishapa 0 in 10000 ft
South Colony 63 in 10800 ft

Coastal Water Temperatures

Place Temperature
No Stations Reporting

Earthquake Activity

City Distance Mag. Time & Date
No recent earthquake activity has been reported nearby.
Minimum magnitude displayed is 2.5.

Nearby Weather Stations

Station Location Temp. Windchill Dew Point Humidity Wind Precip. Elev Updated Type
MesoWest ARAPHO , Arapahoe, CO 49 °F 49 °F - - North  at  - 0.00 in / hr 3991 ft 12:30 AM MDT MADIS
DW8525, Cheyenne Wells, CO 48.6 °F 49 °F 38 °F 68% North  at  0.0 mph 0.00 in / hr 4295 ft 4:04 AM MDT Rapid Fire
MesoWest FRSTVW , Cheyenne Wells, CO 50 °F - - - North  at  - 0.00 in / hr 4457 ft 3:00 AM MDT MADIS
4M Feeders, Stratton, CO 45.8 °F 46 °F 40 °F 79% North  at  0.0 mph 0.00 in / hr 4531 ft 4:02 AM MDT Normal

Show More Stations Show Fewer Stations

What do you think?

We're not finished. Please let us know what you like, what you don't like, and what you are still missing.